Time;durP1;ratioP1;P1;durP2;ratioP2;P2;SDS_P1;SDS_P2;PMS_P1;PMS_P2;Temp;Humidity;BMP_temperature;BMP_pressure;BME280_temperature;BME280_humidity;BME280_pressure;Samples;Min_cycle;Max_cycle;Signal;HPM_P1;HPM_P2
2021/10/29 00:01:21;;;;;;;28.95;20.10;;;10.40;82.80;;;;;;4941697;28;92493;-92
2021/10/29 00:03:48;;;;;;;30.08;20.40;;;10.40;82.40;;;;;;4941742;28;95328;-93
2021/10/29 00:06:15;;;;;;;25.63;20.45;;;10.40;82.50;;;;;;4925704;28;98928;-93
2021/10/29 00:08:42;;;;;;;27.67;20.67;;;10.40;82.20;;;;;;4941615;28;92445;-92
2021/10/29 00:11:09;;;;;;;28.73;20.85;;;10.30;82.30;;;;;;4925822;28;92578;-92
2021/10/29 00:13:36;;;;;;;28.73;20.95;;;10.30;82.40;;;;;;4940553;28;97904;-93
2021/10/29 00:16:04;;;;;;;27.58;20.50;;;10.30;82.00;;;;;;4941077;28;97298;-93
2021/10/29 00:18:31;;;;;;;25.13;19.48;;;10.30;82.40;;;;;;4941184;28;92228;-92
2021/10/29 00:20:58;;;;;;;25.92;18.33;;;10.20;82.20;;;;;;4957918;28;92576;-93
2021/10/29 00:23:27;;;;;;;29.27;20.17;;;10.20;82.70;;;;;;4957497;28;95849;-91
2021/10/29 00:25:54;;;;;;;24.80;18.63;;;10.20;82.40;;;;;;4925384;28;96029;-93
2021/10/29 00:28:21;;;;;;;32.58;21.08;;;10.20;82.50;;;;;;4909353;28;92620;-93
2021/10/29 00:30:48;;;;;;;30.27;20.63;;;10.20;83.00;;;;;;4941651;28;91714;-93
2021/10/29 00:33:16;;;;;;;28.20;19.75;;;10.20;82.80;;;;;;4956737;28;104717;-93
2021/10/29 00:35:43;;;;;;;28.42;19.45;;;10.20;82.60;;;;;;4925369;28;94729;-93
2021/10/29 00:38:11;;;;;;;30.30;21.40;;;10.10;82.20;;;;;;4923913;28;94776;-92
2021/10/29 00:40:39;;;;;;;27.83;19.80;;;10.10;82.50;;;;;;4941302;28;92657;-93
2021/10/29 00:43:08;;;;;;;31.92;20.70;;;10.10;82.90;;;;;;4941699;28;92904;-93
2021/10/29 00:45:35;;;;;;;31.70;19.80;;;10.10;82.70;;;;;;4957445;28;93222;-92
2021/10/29 00:48:03;;;;;;;26.42;19.63;;;10.10;82.20;;;;;;4957645;28;92322;-93
2021/10/29 00:50:30;;;;;;;26.40;19.13;;;10.10;82.80;;;;;;4941271;28;92516;-93
2021/10/29 00:52:58;;;;;;;29.45;19.25;;;10.00;82.50;;;;;;4925026;28;96375;-93
2021/10/29 00:55:25;;;;;;;28.60;19.33;;;10.00;82.30;;;;;;4909180;28;96121;-93
2021/10/29 00:57:52;;;;;;;27.92;19.65;;;10.00;82.30;;;;;;4940891;28;92458;-92
2021/10/29 01:00:20;;;;;;;31.23;21.05;;;10.00;82.40;;;;;;4925041;28;92580;-93
2021/10/29 01:02:47;;;;;;;28.80;19.90;;;10.00;82.60;;;;;;4923217;28;101418;-92
2021/10/29 01:05:15;;;;;;;29.67;19.77;;;10.00;82.50;;;;;;4940587;28;98080;-92
2021/10/29 01:07:42;;;;;;;28.02;20.85;;;9.90;82.80;;;;;;4924769;28;92501;-93
2021/10/29 01:10:10;;;;;;;28.23;20.05;;;9.90;82.90;;;;;;4940753;28;92476;-92
2021/10/29 01:12:38;;;;;;;29.90;21.55;;;9.90;82.70;;;;;;4940590;28;95825;-93
2021/10/29 01:15:07;;;;;;;28.30;19.23;;;10.00;83.10;;;;;;4940700;28;95918;-92
2021/10/29 01:17:34;;;;;;;30.95;20.27;;;9.90;82.80;;;;;;4924285;28;92478;-93
2021/10/29 01:20:01;;;;;;;31.02;20.40;;;9.90;82.40;;;;;;4941098;28;92164;-92
2021/10/29 01:22:28;;;;;;;29.70;19.30;;;9.90;82.60;;;;;;4924033;28;95855;-93
2021/10/29 01:24:55;;;;;;;29.65;19.75;;;9.90;82.50;;;;;;4908501;28;95466;-93
2021/10/29 01:27:23;;;;;;;28.45;18.60;;;9.90;82.70;;;;;;4922292;28;100723;-92
2021/10/29 01:29:51;;;;;;;31.45;19.73;;;9.80;82.30;;;;;;4940324;28;92552;-93
2021/10/29 01:32:20;;;;;;;30.90;19.67;;;9.90;82.40;;;;;;4940181;28;96164;-92
2021/10/29 01:34:47;;;;;;;30.60;20.30;;;9.90;83.20;;;;;;4939992;28;95931;-92
2021/10/29 01:37:14;;;;;;;29.13;19.60;;;9.80;82.60;;;;;;4940199;28;92313;-93
2021/10/29 01:39:42;;;;;;;32.55;20.65;;;9.80;82.50;;;;;;4908288;28;93326;-93
2021/10/29 01:42:10;;;;;;;27.60;20.42;;;9.80;82.50;;;;;;4956139;28;108030;-92
2021/10/29 01:44:37;;;;;;;32.53;19.90;;;9.80;82.60;;;;;;4924395;28;95744;-92
2021/10/29 01:47:04;;;;;;;29.02;20.00;;;9.80;83.10;;;;;;4924242;28;92204;-93
2021/10/29 01:49:32;;;;;;;27.48;19.45;;;9.80;82.60;;;;;;4924178;28;92479;-93
2021/10/29 01:51:59;;;;;;;28.92;20.52;;;9.80;82.70;;;;;;4922747;28;96883;-93
2021/10/29 01:54:27;;;;;;;24.80;18.23;;;9.80;82.60;;;;;;4957498;28;95597;-93
2021/10/29 02:01:02;;;;;;;29.35;19.65;;;9.80;82.50;;;;;;4939064;28;92626;-92
2021/10/29 02:03:29;;;;;;;25.95;18.25;;;9.70;83.00;;;;;;4923497;28;95707;-92
2021/10/29 02:05:56;;;;;;;27.45;19.25;;;9.70;82.80;;;;;;4926834;28;96204;-92
2021/10/29 02:08:24;;;;;;;25.60;18.13;;;9.60;83.10;;;;;;4908528;28;92239;-92
2021/10/29 02:10:51;;;;;;;25.65;19.13;;;9.60;82.90;;;;;;4956607;28;91611;-92
2021/10/29 02:13:20;;;;;;;26.60;18.35;;;9.70;83.80;;;;;;4939749;28;95951;-93
2021/10/29 02:15:48;;;;;;;28.00;19.92;;;9.60;82.80;;;;;;4923883;28;95337;-92
2021/10/29 02:18:16;;;;;;;26.55;18.17;;;9.60;82.70;;;;;;4942198;28;94893;-92
2021/10/29 02:20:44;;;;;;;26.23;18.38;;;9.60;83.20;;;;;;4923676;28;92506;-93
2021/10/29 02:23:12;;;;;;;29.13;19.80;;;9.60;82.90;;;;;;4923757;28;94264;-93
2021/10/29 02:25:43;;;;;;;22.48;15.98;;;9.70;83.40;;;;;;4923048;28;95716;-92
2021/10/29 02:28:16;;;;;;;25.50;17.00;;;9.60;82.60;;;;;;4922674;28;92480;-93
2021/10/29 02:30:44;;;;;;;27.33;17.95;;;9.60;82.80;;;;;;4939491;28;92948;-92
2021/10/29 02:33:13;;;;;;;27.95;18.98;;;9.60;83.00;;;;;;4923105;28;95704;-92
2021/10/29 02:35:40;;;;;;;25.48;17.20;;;9.60;83.20;;;;;;4956866;28;93065;-93
2021/10/29 02:38:07;;;;;;;26.77;17.45;;;9.60;82.70;;;;;;4891714;28;92517;-93
2021/10/29 02:40:34;;;;;;;26.48;17.08;;;9.60;83.10;;;;;;4922041;28;92502;-92
2021/10/29 02:43:02;;;;;;;26.70;17.67;;;9.70;82.80;;;;;;4922945;28;98183;-93
2021/10/29 02:45:29;;;;;;;26.13;17.20;;;9.70;82.50;;;;;;4939760;28;95730;-92
2021/10/29 02:47:56;;;;;;;25.67;18.13;;;9.70;82.30;;;;;;4923349;28;92525;-93
2021/10/29 02:50:24;;;;;;;24.13;17.70;;;9.70;82.40;;;;;;4936141;28;92454;-92
2021/10/29 02:52:52;;;;;;;25.70;16.60;;;9.70;82.20;;;;;;4920124;28;96189;-92
2021/10/29 02:55:19;;;;;;;24.92;16.95;;;9.70;82.40;;;;;;4936088;28;95781;-92
2021/10/29 02:57:46;;;;;;;27.23;17.17;;;9.60;82.60;;;;;;4936007;28;92394;-93
2021/10/29 03:00:16;;;;;;;28.80;18.63;;;9.60;82.90;;;;;;4920266;28;92169;-93
2021/10/29 03:02:44;;;;;;;26.02;17.75;;;9.70;82.90;;;;;;4936057;28;96159;-93
2021/10/29 03:06:16;;;;;;;26.08;16.85;;;9.70;82.70;;;;;;4935886;28;95921;-91
2021/10/29 03:08:43;;;;;;;24.65;16.98;;;9.70;82.30;;;;;;4934588;28;94991;-92
2021/10/29 03:11:10;;;;;;;23.58;16.85;;;9.60;82.30;;;;;;4936027;28;92572;-92
2021/10/29 03:13:37;;;;;;;25.45;16.50;;;9.60;82.30;;;;;;4935734;28;96062;-91
2021/10/29 03:16:04;;;;;;;23.48;16.42;;;9.70;82.60;;;;;;4919366;28;95935;-92
2021/10/29 03:18:31;;;;;;;23.58;15.43;;;9.70;83.10;;;;;;4939036;28;92421;-92
2021/10/29 03:20:58;;;;;;;23.15;16.63;;;9.70;82.80;;;;;;4939160;28;92438;-92
2021/10/29 03:23:25;;;;;;;22.17;16.30;;;9.70;81.90;;;;;;4907035;28;96087;-92
2021/10/29 03:25:52;;;;;;;21.00;15.77;;;9.70;82.00;;;;;;4938884;28;95727;-92
2021/10/29 03:28:19;;;;;;;21.73;15.93;;;9.70;81.90;;;;;;4938790;28;92389;-92
2021/10/29 03:30:47;;;;;;;22.42;16.45;;;9.70;81.50;;;;;;4922557;28;93292;-92
2021/10/29 03:33:14;;;;;;;25.52;17.23;;;9.70;81.70;;;;;;4937670;28;98358;-91
2021/10/29 03:35:41;;;;;;;22.98;15.85;;;9.70;81.40;;;;;;4906474;28;97895;-91
2021/10/29 03:48:27;;;;;;;26.48;17.08;;;9.70;81.50;;;;;;4938320;28;92443;-91
2021/10/29 03:51:02;;;;;;;22.30;16.15;;;9.60;81.80;;;;;;4956620;28;91719;-91
2021/10/29 03:56:04;;;;;;;22.35;15.55;;;9.60;82.50;;;;;;4942525;28;95642;-92
2021/10/29 03:58:31;;;;;;;21.50;15.30;;;9.60;82.00;;;;;;4940512;28;95152;-92
2021/10/29 04:00:58;;;;;;;25.42;16.58;;;9.50;81.90;;;;;;4926214;28;92433;-92
2021/10/29 04:03:26;;;;;;;22.35;16.05;;;9.60;82.10;;;;;;4925819;28;93718;-92
2021/10/29 04:05:53;;;;;;;22.67;16.85;;;9.60;82.20;;;;;;4941775;28;95410;-92
2021/10/29 04:08:20;;;;;;;23.98;16.35;;;9.60;82.30;;;;;;4925773;28;92370;-91
2021/10/29 04:10:49;;;;;;;27.17;17.95;;;9.50;81.90;;;;;;4925831;28;92470;-91
2021/10/29 04:13:16;;;;;;;23.90;14.82;;;9.50;81.70;;;;;;4909795;28;95682;-91
2021/10/29 04:15:43;;;;;;;24.10;16.48;;;9.50;81.90;;;;;;4941949;28;92037;-91
2021/10/29 04:18:10;;;;;;;20.70;14.30;;;9.50;82.20;;;;;;4925029;28;92479;-92
2021/10/29 04:20:38;;;;;;;23.05;15.27;;;9.50;82.40;;;;;;4925302;28;92559;-91
2021/10/29 04:23:05;;;;;;;21.42;14.77;;;9.50;82.30;;;;;;4908091;28;98541;-91
2021/10/29 04:25:33;;;;;;;23.33;15.75;;;9.50;82.00;;;;;;4925262;28;98195;-91
2021/10/29 04:28:05;;;;;;;22.25;15.70;;;9.50;82.00;;;;;;4941765;28;92418;-91
2021/10/29 04:30:32;;;;;;;23.30;15.55;;;9.50;82.20;;;;;;4941917;28;92385;-92
2021/10/29 04:33:02;;;;;;;21.10;15.10;;;9.50;82.40;;;;;;4941331;28;96123;-91
2021/10/29 04:35:29;;;;;;;19.38;14.27;;;9.40;82.40;;;;;;4925904;28;95670;-91
2021/10/29 04:37:56;;;;;;;21.40;14.60;;;9.40;82.50;;;;;;4941619;28;92462;-91
2021/10/29 04:40:23;;;;;;;21.50;15.82;;;9.40;82.70;;;;;;4910249;28;92003;-91
2021/10/29 04:42:50;;;;;;;21.40;15.68;;;9.40;82.50;;;;;;4909980;28;96187;-91
2021/10/29 04:45:18;;;;;;;22.23;15.50;;;9.40;82.10;;;;;;4942399;28;95671;-91
2021/10/29 04:47:46;;;;;;;24.98;15.43;;;9.40;82.40;;;;;;4940914;28;94680;-91
2021/10/29 04:50:13;;;;;;;21.85;14.73;;;9.40;82.10;;;;;;4925917;28;98329;-92
2021/10/29 04:52:40;;;;;;;22.20;14.50;;;9.40;82.80;;;;;;4941761;28;96020;-92
2021/10/29 04:55:08;;;;;;;25.05;16.20;;;9.30;82.70;;;;;;4925696;28;96036;-91
2021/10/29 04:57:35;;;;;;;22.55;14.90;;;9.40;82.50;;;;;;4909460;28;92383;-90
2021/10/29 05:00:05;;;;;;;20.85;15.48;;;9.30;82.00;;;;;;4957178;28;92635;-91
2021/10/29 05:02:33;;;;;;;20.40;14.38;;;9.40;82.60;;;;;;4940997;28;95529;-91
2021/10/29 05:05:05;;;;;;;21.63;14.32;;;9.30;82.50;;;;;;4925748;28;93039;-92
2021/10/29 05:07:33;;;;;;;24.38;15.10;;;9.30;83.00;;;;;;4941693;28;92565;-91
2021/10/29 05:10:00;;;;;;;23.02;15.02;;;9.30;83.60;;;;;;4941789;28;92609;-92
2021/10/29 05:12:27;;;;;;;22.45;15.35;;;9.30;82.50;;;;;;4924551;28;97960;-92
2021/10/29 05:14:54;;;;;;;23.35;15.45;;;9.30;82.70;;;;;;4909679;28;97779;-91
2021/10/29 05:17:21;;;;;;;23.17;15.13;;;9.30;82.60;;;;;;4940800;28;92415;-91
2021/10/29 05:19:48;;;;;;;22.52;14.35;;;9.30;82.50;;;;;;4924824;28;92554;-92
2021/10/29 05:22:15;;;;;;;19.50;14.65;;;9.20;82.80;;;;;;4925596;28;97541;-91
2021/10/29 05:24:42;;;;;;;20.90;13.50;;;9.20;83.10;;;;;;4924269;28;95776;-91
2021/10/29 05:27:09;;;;;;;19.48;14.18;;;9.20;82.50;;;;;;4924662;28;92488;-91
2021/10/29 05:29:36;;;;;;;19.90;14.38;;;9.20;83.40;;;;;;4908567;28;92023;-92
2021/10/29 05:32:04;;;;;;;19.88;13.38;;;9.20;83.40;;;;;;4908779;28;93723;-91
2021/10/29 05:34:31;;;;;;;21.13;14.50;;;9.20;82.80;;;;;;4908737;28;95450;-91
2021/10/29 05:37:01;;;;;;;23.50;14.80;;;9.30;83.60;;;;;;4910296;28;95268;-92
2021/10/29 05:39:30;;;;;;;21.00;14.35;;;9.20;83.10;;;;;;4908945;28;92492;-91
2021/10/29 05:41:57;;;;;;;20.85;13.57;;;9.20;82.60;;;;;;4924826;28;95897;-92
2021/10/29 05:44:24;;;;;;;19.17;13.88;;;9.30;83.00;;;;;;4940400;28;95739;-92
2021/10/29 05:46:51;;;;;;;18.08;13.38;;;9.20;82.80;;;;;;4940510;28;92570;-91
2021/10/29 05:49:18;;;;;;;20.00;14.13;;;9.30;83.30;;;;;;4940883;28;92189;-91
2021/10/29 05:51:50;;;;;;;18.15;13.95;;;9.20;83.30;;;;;;4957503;28;93747;-91
2021/10/29 05:56:48;;;;;;;20.67;13.90;;;9.30;82.60;;;;;;4957571;28;92503;-91
2021/10/29 05:59:15;;;;;;;19.00;13.30;;;9.30;82.70;;;;;;4940312;28;92569;-91
2021/10/29 06:01:42;;;;;;;19.98;13.27;;;9.20;82.20;;;;;;4939105;28;96028;-91
2021/10/29 06:04:10;;;;;;;21.23;14.40;;;9.20;83.20;;;;;;4924835;28;97303;-92
2021/10/29 06:06:37;;;;;;;18.80;13.15;;;9.30;83.20;;;;;;4957914;28;92278;-91
2021/10/29 06:09:04;;;;;;;17.48;13.75;;;9.30;82.90;;;;;;4926570;28;92434;-91
2021/10/29 06:11:31;;;;;;;17.73;12.23;;;9.30;83.10;;;;;;4943505;28;93126;-91
2021/10/29 06:13:58;;;;;;;17.48;13.85;;;9.30;83.20;;;;;;4943074;28;95535;-91
2021/10/29 06:16:25;;;;;;;17.67;13.30;;;9.30;83.10;;;;;;4942408;28;92358;-91
2021/10/29 06:18:56;;;;;;;18.90;13.00;;;9.30;82.80;;;;;;4955966;28;91791;-91
2021/10/29 06:21:44;;;;;;;17.08;12.75;;;9.30;82.70;;;;;;4937273;28;93354;-92
2021/10/29 06:24:14;;;;;;;19.77;13.88;;;9.40;82.70;;;;;;4939303;28;96051;-91
2021/10/29 06:26:49;;;;;;;14.90;11.77;;;9.30;83.00;;;;;;4935954;28;94763;-91
2021/10/29 06:29:16;;;;;;;17.65;12.75;;;9.30;82.50;;;;;;4937526;28;92484;-91
2021/10/29 06:31:43;;;;;;;20.10;13.82;;;9.30;82.80;;;;;;4923196;28;96425;-91
2021/10/29 06:34:12;;;;;;;19.52;12.38;;;9.40;82.70;;;;;;4939635;28;95557;-91
2021/10/29 06:36:40;;;;;;;17.05;12.88;;;9.40;82.20;;;;;;4939863;28;92456;-91
2021/10/29 06:39:08;;;;;;;16.98;12.63;;;9.40;82.20;;;;;;4939077;28;92592;-91
2021/10/29 06:41:36;;;;;;;20.90;14.00;;;9.40;82.70;;;;;;4939737;28;93526;-91
2021/10/29 06:44:10;;;;;;;19.10;13.98;;;9.40;82.20;;;;;;4957041;28;92734;-91
2021/10/29 07:40:46;;;;;;;1999.90;999.90;;;10.90;78.40;;;;;;4958552;28;92455;-91
2021/10/29 07:43:24;;;;;;;25.88;23.83;;;11.00;78.10;;;;;;4943629;28;92446;-91
2021/10/29 07:45:51;;;;;;;54.33;51.45;;;11.20;77.50;;;;;;4957204;28;98930;-91
2021/10/29 07:48:19;;;;;;;14.23;11.93;;;11.30;77.30;;;;;;4925913;28;98393;-91
2021/10/29 07:50:46;;;;;;;13.73;10.85;;;11.40;76.70;;;;;;4958111;28;92213;-91
2021/10/29 07:53:13;;;;;;;12.30;9.98;;;11.50;76.50;;;;;;4925925;28;92631;-91
2021/10/29 07:55:40;;;;;;;11.77;10.57;;;11.70;75.80;;;;;;4925748;28;96215;-91
2021/10/29 07:58:08;;;;;;;12.45;10.40;;;11.80;75.80;;;;;;4958214;28;95312;-91
2021/10/29 08:00:36;;;;;;;13.65;11.02;;;11.90;74.90;;;;;;4925589;28;92552;-91
2021/10/29 08:03:05;;;;;;;13.23;10.23;;;11.80;74.50;;;;;;4958342;28;91925;-91
2021/10/29 08:05:37;;;;;;;14.85;10.82;;;11.90;75.40;;;;;;4940952;28;96006;-91
2021/10/29 08:08:05;;;;;;;13.35;10.68;;;11.90;74.60;;;;;;4941578;28;95961;-91
2021/10/29 08:10:34;;;;;;;12.63;10.15;;;12.00;74.80;;;;;;4956806;28;94843;-91
2021/10/29 08:13:03;;;;;;;12.68;10.65;;;12.00;75.00;;;;;;4942005;28;92519;-91
2021/10/29 08:15:33;;;;;;;16.50;10.82;;;12.00;75.40;;;;;;4925117;28;95109;-91
2021/10/29 08:18:00;;;;;;;12.07;10.02;;;12.00;74.90;;;;;;4925268;28;95175;-90
2021/10/29 08:20:27;;;;;;;11.30;9.95;;;12.00;75.60;;;;;;4941398;28;98342;-90
2021/10/29 08:22:54;;;;;;;11.57;9.75;;;12.10;74.70;;;;;;4925993;28;92581;-91
2021/10/29 08:25:21;;;;;;;14.23;9.60;;;12.10;75.10;;;;;;4942100;28;93328;-91
2021/10/29 08:27:48;;;;;;;11.02;9.73;;;12.10;75.00;;;;;;4942181;28;94486;-91
2021/10/29 08:30:16;;;;;;;12.60;10.23;;;12.20;74.90;;;;;;4926984;28;92345;-91
2021/10/29 08:32:46;;;;;;;10.27;8.80;;;12.30;74.40;;;;;;4957972;28;92682;-91
2021/10/29 08:35:14;;;;;;;12.93;9.77;;;12.30;74.60;;;;;;4924865;28;98648;-91
2021/10/29 08:37:41;;;;;;;10.65;9.15;;;12.40;74.60;;;;;;4957369;28;98152;-90
2021/10/29 08:40:09;;;;;;;11.70;8.77;;;12.50;74.60;;;;;;4925568;28;92616;-90
2021/10/29 08:42:38;;;;;;;11.20;9.43;;;12.50;73.60;;;;;;4925964;28;92722;-91
2021/10/29 08:45:08;;;;;;;10.93;8.80;;;12.60;73.90;;;;;;4942167;28;96276;-91
2021/10/29 08:47:40;;;;;;;10.68;9.00;;;12.70;73.80;;;;;;4958950;28;96085;-91
2021/10/29 08:50:17;;;;;;;11.40;8.45;;;12.80;73.20;;;;;;4958503;28;92423;-91
2021/10/29 08:52:47;;;;;;;11.82;9.00;;;12.90;72.90;;;;;;4960103;28;91725;-91
2021/10/29 08:55:17;;;;;;;9.38;8.02;;;12.90;72.50;;;;;;4925721;28;94272;-91
2021/10/29 08:57:48;;;;;;;12.60;8.68;;;13.00;72.50;;;;;;4941858;28;95957;-90
2021/10/29 09:00:23;;;;;;;10.00;8.95;;;13.00;72.10;;;;;;4940177;28;94912;-91
2021/10/29 09:05:47;;;;;;;12.45;8.68;;;13.30;71.90;;;;;;4923150;28;96241;-91
2021/10/29 09:08:34;;;;;;;11.60;9.10;;;13.40;71.30;;;;;;4923862;28;95908;-90
2021/10/29 09:31:26;;;;;;;9.35;8.05;;;14.20;69.30;;;;;;4958846;28;97825;-91
2021/10/29 09:33:56;;;;;;;10.43;8.02;;;14.20;68.90;;;;;;4959329;28;92313;-91
2021/10/29 09:36:28;;;;;;;9.13;7.70;;;14.30;68.90;;;;;;4924832;28;92510;-91
2021/10/29 09:39:20;;;;;;;9.10;8.20;;;14.40;68.50;;;;;;4926529;28;96355;-90
2021/10/29 09:42:11;;;;;;;8.45;7.53;;;14.50;68.50;;;;;;4945173;28;93523;-91
2021/10/29 09:44:43;;;;;;;9.68;7.05;;;14.50;68.10;;;;;;4942104;28;92489;-91
2021/10/29 09:47:11;;;;;;;10.27;6.90;;;14.60;67.80;;;;;;4943131;28;91597;-91
2021/10/29 09:55:10;;;;;;;;;;;14.80;67.00;;;;;;4912090;28;94964;-91
2021/10/29 09:57:37;;;;;;;9.85;7.93;;;14.90;67.20;;;;;;4945627;28;92463;-91
2021/10/29 10:00:08;;;;;;;9.52;7.72;;;14.90;66.70;;;;;;4911075;28;95083;-91
2021/10/29 10:02:43;;;;;;;6.80;5.85;;;15.00;66.70;;;;;;4960335;28;92546;-91
2021/10/29 10:05:14;;;;;;;11.45;7.57;;;15.10;65.80;;;;;;4927184;28;92371;-91
2021/10/29 10:07:45;;;;;;;12.43;8.52;;;15.20;66.20;;;;;;4941225;28;92417;-90
2021/10/29 10:10:13;;;;;;;10.43;8.15;;;15.30;66.20;;;;;;4940454;28;96293;-91
2021/10/29 10:12:43;;;;;;;10.50;8.13;;;15.40;66.40;;;;;;4924849;28;95522;-91
2021/10/29 10:15:11;;;;;;;10.15;8.00;;;15.50;65.80;;;;;;4924542;28;92341;-91
2021/10/29 10:17:39;;;;;;;10.93;7.97;;;15.50;65.60;;;;;;4924306;28;92525;-91
2021/10/29 10:20:07;;;;;;;10.40;8.40;;;15.60;65.40;;;;;;4906769;28;98692;-91
2021/10/29 10:22:40;;;;;;;10.70;8.30;;;15.60;64.80;;;;;;4940248;28;97951;-91
2021/10/29 10:25:28;;;;;;;10.02;7.00;;;15.60;64.50;;;;;;4926475;28;92431;-91
2021/10/29 10:31:00;;;;;;;9.50;7.82;;;15.60;64.40;;;;;;4925719;28;95783;-90
2021/10/29 10:48:10;;;;;;;10.13;8.30;;;16.30;62.80;;;;;;4945735;28;94841;-91
2021/10/29 10:50:40;;;;;;;11.82;7.43;;;16.40;62.40;;;;;;4937291;28;92575;-90
2021/10/29 10:53:11;;;;;;;9.15;7.80;;;16.40;62.50;;;;;;4920632;28;95756;-91
2021/10/29 11:02:18;;;;;;;8.25;7.40;;;16.50;62.60;;;;;;4888219;28;93806;-91
2021/10/29 11:12:43;;;;;;;9.05;7.95;;;16.30;62.60;;;;;;4909166;28;92440;-91
2021/10/29 11:15:25;;;;;;;7.90;6.97;;;16.30;62.50;;;;;;4921835;28;98477;-91
2021/10/29 11:18:13;;;;;;;10.25;7.47;;;16.30;62.50;;;;;;4922838;28;97805;-90
2021/10/29 11:20:43;;;;;;;8.13;7.05;;;16.40;62.40;;;;;;4922875;28;92485;-91
2021/10/29 11:23:37;;;;;;;7.90;7.10;;;16.40;62.30;;;;;;4914392;28;92400;-91
2021/10/29 11:26:20;;;;;;;8.90;7.13;;;16.50;62.50;;;;;;4938888;28;96252;-90
2021/10/29 11:28:51;;;;;;;7.38;6.47;;;16.50;62.60;;;;;;4922857;28;95529;-91
2021/10/29 11:31:23;;;;;;;8.88;7.22;;;16.50;62.30;;;;;;4950891;28;92342;-91
2021/10/29 11:33:52;;;;;;;9.38;7.43;;;16.60;62.10;;;;;;4927400;28;91680;-90
2021/10/29 11:36:23;;;;;;;7.65;6.85;;;16.70;62.00;;;;;;4941895;28;96079;-90
2021/10/29 11:38:51;;;;;;;8.60;7.25;;;16.80;61.90;;;;;;4942006;28;95950;-91
2021/10/29 11:41:21;;;;;;;12.05;6.55;;;16.80;61.60;;;;;;4941010;28;95106;-91
2021/10/29 11:43:49;;;;;;;8.07;7.13;;;16.70;61.20;;;;;;4945433;28;92471;-91
2021/10/29 11:46:17;;;;;;;9.07;6.50;;;16.80;61.30;;;;;;4957781;28;96209;-91
2021/10/29 11:49:06;;;;;;;8.50;6.70;;;16.80;61.60;;;;;;4942208;28;93063;-91
2021/10/29 11:51:35;;;;;;;7.68;6.88;;;16.80;61.40;;;;;;4957850;28;92540;-91
2021/10/29 11:56:44;;;;;;;8.50;7.32;;;16.90;61.90;;;;;;4941794;28;95986;-91
2021/10/29 12:01:56;;;;;;;8.38;6.53;;;16.90;61.90;;;;;;4957867;28;92498;-91
2021/10/29 12:07:14;;;;;;;8.40;6.25;;;17.00;62.20;;;;;;4929804;28;99461;-91
2021/10/29 12:09:50;;;;;;;9.57;6.95;;;16.90;61.30;;;;;;4941709;28;98074;-90
2021/10/29 12:12:25;;;;;;;8.30;6.80;;;17.00;61.40;;;;;;4957830;28;93113;-90
2021/10/29 12:14:55;;;;;;;7.38;6.55;;;17.10;62.20;;;;;;4941989;28;92379;-91
2021/10/29 12:17:31;;;;;;;8.20;6.18;;;17.30;61.70;;;;;;4941634;28;95774;-91
2021/10/29 12:20:02;;;;;;;7.47;6.47;;;17.40;60.90;;;;;;4942006;28;96089;-91
2021/10/29 12:27:44;;;;;;;10.95;6.47;;;17.70;59.70;;;;;;4941821;28;95945;-91
2021/10/29 12:30:28;;;;;;;9.65;7.30;;;17.80;59.90;;;;;;4942021;28;96005;-91
2021/10/29 12:33:18;;;;;;;8.15;6.72;;;17.90;59.60;;;;;;4940866;28;95189;-91
2021/10/29 13:02:11;;;;;;;7.43;6.40;;;17.90;59.70;;;;;;4939949;28;98788;-92
2021/10/29 13:04:47;;;;;;;7.07;5.47;;;17.90;59.50;;;;;;4938739;28;98055;-92
2021/10/29 13:07:14;;;;;;;6.32;5.68;;;17.80;59.60;;;;;;4941184;28;92581;-91
2021/10/29 13:09:41;;;;;;;7.68;6.38;;;17.70;60.10;;;;;;4925359;28;92458;-91
2021/10/29 13:12:25;;;;;;;7.15;5.97;;;17.60;60.20;;;;;;4924745;28;103456;-91
2021/10/29 13:15:02;;;;;;;8.00;6.57;;;17.50;60.40;;;;;;4923437;28;95712;-91
2021/10/29 13:17:38;;;;;;;8.82;6.63;;;17.40;60.50;;;;;;4892606;28;92538;-91
2021/10/29 13:59:46;;;;;;;9.98;9.00;;;17.70;60.20;;;;;;4904766;28;92404;-92
2021/10/29 14:30:04;;;;;;;6.43;5.78;;;17.20;61.40;;;;;;4939314;28;96068;-91
2021/10/29 14:35:24;;;;;;;7.47;5.32;;;17.30;61.20;;;;;;4956905;28;92344;-92
2021/10/29 14:40:38;;;;;;;10.50;6.55;;;17.40;61.30;;;;;;4940151;28;95668;-91
2021/10/29 15:31:52;;;;;;;16.63;13.55;;;16.70;62.90;;;;;;4928902;28;95727;-91
2021/10/29 15:42:31;;;;;;;8.50;5.40;;;16.50;63.60;;;;;;4921896;28;98424;-91
2021/10/29 15:45:10;;;;;;;7.18;6.47;;;16.30;64.50;;;;;;4941244;28;95421;-92
2021/10/29 15:50:16;;;;;;;10.77;7.43;;;16.20;64.80;;;;;;4912422;28;92467;-91
2021/10/29 15:52:51;;;;;;;7.78;6.63;;;16.10;64.80;;;;;;4926625;28;96480;-91
2021/10/29 15:55:44;;;;;;;8.38;6.97;;;16.10;65.90;;;;;;4941342;28;95510;-91
2021/10/29 16:00:53;;;;;;;8.15;6.10;;;15.90;65.20;;;;;;4926163;28;91893;-91
2021/10/29 16:03:49;;;;;;;6.82;6.10;;;15.80;65.70;;;;;;4927512;28;96118;-91
2021/10/29 16:17:25;;;;;;;7.93;6.78;;;15.50;66.70;;;;;;4914119;28;95969;-91
2021/10/29 16:19:52;;;;;;;6.40;5.70;;;15.40;67.00;;;;;;4925326;28;92486;-91
2021/10/29 16:22:21;;;;;;;8.27;6.38;;;15.30;67.10;;;;;;4909560;28;92616;-92
2021/10/29 16:27:23;;;;;;;;;;;15.30;67.30;;;;;;4926620;28;95569;-92
2021/10/29 16:29:51;;;;;;;7.57;5.80;;;15.10;67.40;;;;;;4942134;28;99432;-91
2021/10/29 16:32:48;;;;;;;10.30;6.20;;;15.10;67.70;;;;;;4926021;28;92539;-92
2021/10/29 16:35:05;;;;;;;7.32;6.28;;;15.10;67.90;;;;;;4942022;28;95737;-91
2021/10/29 16:37:32;;;;;;;8.70;6.88;;;15.10;67.70;;;;;;4924511;28;98454;-91
2021/10/29 16:39:59;;;;;;;7.32;6.28;;;15.00;67.90;;;;;;4925312;28;92451;-91
2021/10/29 16:42:26;;;;;;;8.68;6.75;;;15.00;67.90;;;;;;4924929;28;92534;-91
2021/10/29 16:44:54;;;;;;;8.52;6.38;;;15.00;68.00;;;;;;4924932;28;93701;-91
2021/10/29 16:47:21;;;;;;;7.88;7.18;;;14.90;68.10;;;;;;4909514;28;95939;-91
2021/10/29 16:49:49;;;;;;;27.60;23.92;;;14.90;68.00;;;;;;4910908;28;92466;-91
2021/10/29 16:52:16;;;;;;;15.93;13.43;;;14.90;68.70;;;;;;4941797;28;91689;-91
2021/10/29 16:54:43;;;;;;;17.55;16.05;;;14.90;68.30;;;;;;4924589;28;96098;-91
2021/10/29 16:57:11;;;;;;;10.90;9.90;;;14.90;68.30;;;;;;4924197;28;95881;-91
2021/10/29 16:59:38;;;;;;;18.35;16.85;;;14.90;68.30;;;;;;4934385;28;94985;-91
2021/10/29 17:02:05;;;;;;;9.95;9.15;;;14.80;68.40;;;;;;4908882;28;92506;-91
2021/10/29 17:04:32;;;;;;;9.07;8.25;;;14.70;68.50;;;;;;4910349;28;95856;-91
2021/10/29 17:07:00;;;;;;;8.75;7.93;;;14.80;68.60;;;;;;4925463;28;100532;-91
2021/10/29 17:09:27;;;;;;;16.20;14.68;;;14.80;68.40;;;;;;4910051;28;92415;-91
2021/10/29 17:11:55;;;;;;;8.25;6.45;;;14.80;68.30;;;;;;4924942;28;92595;-91
2021/10/29 17:14:23;;;;;;;8.25;7.45;;;14.80;68.20;;;;;;4914110;28;96309;-91
2021/10/29 17:16:51;;;;;;;16.90;15.77;;;14.80;68.40;;;;;;4926385;28;96143;-91
2021/10/29 17:19:18;;;;;;;10.02;9.02;;;14.80;68.50;;;;;;4925288;28;92488;-92
2021/10/29 17:21:45;;;;;;;9.68;8.68;;;14.70;68.50;;;;;;4940064;28;108790;-91
2021/10/29 17:24:12;;;;;;;6.95;6.38;;;14.70;68.60;;;;;;4923100;28;98564;-91
2021/10/29 17:26:39;;;;;;;11.05;9.90;;;14.70;68.30;;;;;;4943227;28;96613;-91
2021/10/29 17:29:07;;;;;;;7.43;5.85;;;14.70;68.40;;;;;;4944873;28;92464;-91
2021/10/29 17:31:34;;;;;;;7.25;5.50;;;14.70;68.50;;;;;;4927841;28;92452;-91
2021/10/29 17:34:01;;;;;;;6.55;5.57;;;14.80;68.60;;;;;;4959708;28;93452;-91
2021/10/29 17:36:30;;;;;;;8.43;5.45;;;14.70;68.30;;;;;;4925055;28;99622;-91
2021/10/29 17:38:57;;;;;;;7.90;5.40;;;14.70;68.30;;;;;;4958835;28;92338;-91
2021/10/29 17:41:26;;;;;;;7.10;5.70;;;14.70;68.40;;;;;;4942293;28;91688;-91
2021/10/29 17:43:54;;;;;;;8.32;6.18;;;14.80;68.20;;;;;;4941160;28;93742;-91
2021/10/29 17:46:21;;;;;;;5.25;4.70;;;14.90;67.90;;;;;;4940857;28;93484;-91
2021/10/29 17:48:48;;;;;;;6.47;5.55;;;14.90;67.60;;;;;;4957229;28;94763;-91
2021/10/29 17:51:15;;;;;;;7.40;5.40;;;15.00;67.60;;;;;;4941141;28;92756;-91
2021/10/29 17:53:42;;;;;;;12.25;11.13;;;15.10;67.30;;;;;;4956755;28;95687;-91
2021/10/29 17:56:10;;;;;;;10.93;7.38;;;15.10;67.20;;;;;;4908119;28;95936;-91
2021/10/29 17:58:37;;;;;;;7.25;6.55;;;15.20;67.10;;;;;;4940964;28;92785;-91
2021/10/29 18:01:04;;;;;;;19.15;17.30;;;15.20;66.80;;;;;;4958212;28;92591;-91
2021/10/29 18:03:31;;;;;;;11.50;6.95;;;15.30;66.70;;;;;;4923496;28;96179;-91
2021/10/29 18:05:58;;;;;;;6.40;5.80;;;15.40;66.80;;;;;;4941657;28;92209;-92
2021/10/29 18:08:29;;;;;;;6.93;6.18;;;15.40;66.80;;;;;;4940783;28;92533;-91
2021/10/29 18:10:56;;;;;;;7.50;6.63;;;15.50;66.30;;;;;;4925069;28;92391;-91
2021/10/29 18:13:23;;;;;;;9.57;7.53;;;15.50;66.50;;;;;;4939431;28;95406;-92